EGKK/LGW METAR and TAF weather

Enter ICAO airport designator
Station Type Date Time Source
EGKK METAR 2020/09/23 03:50 UTC NOAA

EGKK 230350Z 20007KT 9999 SCT009 BKN014 17/16 Q1002


Station Type Date Time Source
EGKK Decoded METAR 2020/09/23 03:50 UTC NOAA

London / Gatwick Airport, United Kingdom (EGKK) 51-09N 000-11W 0M
Sep 22, 2020 - 11:50 PM EDT / 2020.09.23 0350 UTC
Wind: from the SSW (200 degrees) at 8 MPH (7 KT):0
Visibility: greater than 7 mile(s):0
Sky conditions: mostly cloudy
Temperature: 62 F (17 C)
Dew Point: 60 F (16 C)
Relative Humidity: 93%
Pressure (altimeter): 29.59 in. Hg (1002 hPa)
ob: EGKK 230350Z 20007KT 9999 SCT009 BKN014 17/16 Q1002
cycle: 4

Station Type Date Time Source
EGKK TAF 2020/09/23 00:17 UTC NOAA

TAF
AMD EGKK 230004Z 2300/2406 24009KT 9999 SCT020
TEMPO 2300/2306 8000 PROB30
TEMPO 2300/2306 SHRA BKN008
TEMPO 2312/2318 6000 RA SHRA PROB30
TEMPO 2314/2317 4000 +SHRA BKN010 PROB30
TEMPO 2321/2323 7000 SHRA PROB30
TEMPO 2405/2406 4000 +SHRA

Example: see airport list